DCDLH LFBI-LFBH
Flight info
| Callsign | DCDLH |
|---|---|
| Flight time | 0h 40m |
| Altitude | 6000 |
| Route | VERAC6S VERAC DCT POI DCT RL |
| Aircraft | JU52/M-SDFGI/C |
Departure
| Time | 2026-05-03 21:20 |
|---|---|
| Airport | Poitiers-Biard Airport (LFBI) |
Arrival
| Time | 2026-05-03 22:01 |
|---|---|
| Airport | La Rochelle Île de Ré Airport (LFBH) |
| Time | Latitude | Longitude | Altitude | Speed | Heading |
|---|---|---|---|---|---|
| 2026-05-03 21:02 | 46.58586 | 0.31002 | 402 ft | 0 kts | 258° |
| 2026-05-03 21:15 | 46.58585 | 0.31000 | 402 ft | 2 kts | 272° |
| 2026-05-03 21:15 | 46.58609 | 0.30951 | 401 ft | 8 kts | 310° |
| 2026-05-03 21:15 | 46.58642 | 0.30890 | 400 ft | 7 kts | 305° |
| 2026-05-03 21:16 | 46.58663 | 0.30843 | 402 ft | 5 kts | 303° |
| 2026-05-03 21:16 | 46.58677 | 0.30813 | 405 ft | 3 kts | 303° |
| 2026-05-03 21:16 | 46.58701 | 0.30760 | 411 ft | 8 kts | 305° |
| 2026-05-03 21:16 | 46.58722 | 0.30721 | 424 ft | 14 kts | 317° |
| 2026-05-03 21:17 | 46.58796 | 0.30724 | 420 ft | 12 kts | 30° |
| 2026-05-03 21:17 | 46.58844 | 0.30764 | 424 ft | 12 kts | 31° |
| 2026-05-03 21:17 | 46.58998 | 0.30901 | 420 ft | 26 kts | 31° |
| 2026-05-03 21:17 | 46.59172 | 0.31045 | 421 ft | 30 kts | 30° |
| 2026-05-03 21:18 | 46.59370 | 0.31212 | 422 ft | 36 kts | 28° |
| 2026-05-03 21:18 | 46.59570 | 0.31381 | 423 ft | 30 kts | 32° |
| 2026-05-03 21:18 | 46.59701 | 0.31502 | 426 ft | 16 kts | 39° |
| 2026-05-03 21:18 | 46.59724 | 0.31541 | 425 ft | 6 kts | 57° |
| 2026-05-03 21:19 | 46.59754 | 0.31597 | 427 ft | 6 kts | 6° |
| 2026-05-03 21:19 | 46.59775 | 0.31568 | 425 ft | 4 kts | 266° |
| 2026-05-03 21:19 | 46.59750 | 0.31541 | 430 ft | 8 kts | 207° |
| 2026-05-03 21:19 | 46.59608 | 0.31416 | 432 ft | 56 kts | 212° |
| 2026-05-03 21:20 | 46.59147 | 0.31003 | 642 ft | 89 kts | 210° |
| 2026-05-03 21:20 | 46.58574 | 0.30574 | 1003 ft | 97 kts | 205° |
| 2026-05-03 21:20 | 46.57956 | 0.30212 | 1430 ft | 94 kts | 201° |
| 2026-05-03 21:20 | 46.57336 | 0.29887 | 1827 ft | 97 kts | 202° |
| 2026-05-03 21:21 | 46.56713 | 0.29438 | 2178 ft | 98 kts | 210° |
| 2026-05-03 21:21 | 46.56173 | 0.28854 | 2593 ft | 95 kts | 216° |
| 2026-05-03 21:21 | 46.55611 | 0.28278 | 2921 ft | 104 kts | 219° |
| 2026-05-03 21:21 | 46.54995 | 0.27730 | 3194 ft | 108 kts | 203° |
| 2026-05-03 21:22 | 46.54240 | 0.27280 | 3289 ft | 124 kts | 202° |
| 2026-05-03 21:22 | 46.53425 | 0.26819 | 3430 ft | 124 kts | 201° |
| 2026-05-03 21:22 | 46.52607 | 0.26465 | 3644 ft | 121 kts | 195° |
| 2026-05-03 21:22 | 46.51792 | 0.26229 | 3873 ft | 118 kts | 189° |
| 2026-05-03 21:23 | 46.50974 | 0.26178 | 4106 ft | 118 kts | 178° |
| 2026-05-03 21:23 | 46.50224 | 0.25955 | 4212 ft | 116 kts | 212° |
| 2026-05-03 21:23 | 46.49631 | 0.25188 | 4338 ft | 118 kts | 221° |
| 2026-05-03 21:23 | 46.48982 | 0.24363 | 4430 ft | 121 kts | 218° |
| 2026-05-03 21:24 | 46.48344 | 0.23660 | 4792 ft | 112 kts | 214° |
| 2026-05-03 21:24 | 46.47676 | 0.23086 | 5035 ft | 113 kts | 205° |
| 2026-05-03 21:24 | 46.46946 | 0.22629 | 5236 ft | 115 kts | 204° |
| 2026-05-03 21:24 | 46.46205 | 0.22149 | 5407 ft | 119 kts | 206° |
| 2026-05-03 21:25 | 46.45442 | 0.21624 | 5542 ft | 122 kts | 207° |
| 2026-05-03 21:25 | 46.44681 | 0.21097 | 5696 ft | 121 kts | 206° |
| 2026-05-03 21:25 | 46.43916 | 0.20598 | 5868 ft | 121 kts | 205° |
| 2026-05-03 21:25 | 46.43136 | 0.20090 | 5843 ft | 121 kts | 205° |
| 2026-05-03 21:26 | 46.42366 | 0.19592 | 5839 ft | 122 kts | 206° |
| 2026-05-03 21:26 | 46.41602 | 0.19049 | 5854 ft | 121 kts | 210° |
| 2026-05-03 21:26 | 46.40897 | 0.18420 | 5903 ft | 118 kts | 214° |
| 2026-05-03 21:26 | 46.40160 | 0.17829 | 5888 ft | 122 kts | 208° |
| 2026-05-03 21:27 | 46.39399 | 0.17334 | 5911 ft | 118 kts | 203° |
| 2026-05-03 21:27 | 46.38659 | 0.16846 | 5949 ft | 111 kts | 205° |
| 2026-05-03 21:27 | 46.37924 | 0.16375 | 5894 ft | 123 kts | 209° |
| 2026-05-03 21:27 | 46.37185 | 0.15788 | 5830 ft | 118 kts | 207° |
| 2026-05-03 21:28 | 46.36433 | 0.15305 | 5884 ft | 116 kts | 201° |
| 2026-05-03 21:28 | 46.35692 | 0.14900 | 5940 ft | 116 kts | 207° |
| 2026-05-03 21:28 | 46.34940 | 0.14384 | 5924 ft | 121 kts | 207° |
| 2026-05-03 21:28 | 46.34199 | 0.13856 | 6031 ft | 116 kts | 208° |
| 2026-05-03 21:29 | 46.33443 | 0.13346 | 5892 ft | 121 kts | 204° |
| 2026-05-03 21:29 | 46.32683 | 0.12894 | 5980 ft | 118 kts | 206° |
| 2026-05-03 21:29 | 46.31960 | 0.12348 | 6071 ft | 117 kts | 213° |
| 2026-05-03 21:29 | 46.31302 | 0.11635 | 6062 ft | 121 kts | 220° |
| 2026-05-03 21:30 | 46.30647 | 0.10904 | 6023 ft | 119 kts | 217° |
| 2026-05-03 21:30 | 46.30114 | 0.10018 | 5922 ft | 124 kts | 249° |
| 2026-05-03 21:30 | 46.30020 | 0.08777 | 5883 ft | 124 kts | 266° |
| 2026-05-03 21:30 | 46.29996 | 0.07537 | 5914 ft | 123 kts | 265° |
| 2026-05-03 21:31 | 46.29944 | 0.06296 | 5918 ft | 123 kts | 263° |
| 2026-05-03 21:31 | 46.29876 | 0.05078 | 6009 ft | 120 kts | 264° |
| 2026-05-03 21:31 | 46.29830 | 0.03893 | 6041 ft | 116 kts | 262° |
| 2026-05-03 21:31 | 46.29768 | 0.02696 | 6057 ft | 122 kts | 264° |
| 2026-05-03 21:32 | 46.29745 | 0.01460 | 6052 ft | 123 kts | 264° |
| 2026-05-03 21:32 | 46.29639 | 0.00259 | 6075 ft | 120 kts | 260° |
| 2026-05-03 21:32 | 46.29537 | -0.00949 | 6094 ft | 123 kts | 261° |
| 2026-05-03 21:32 | 46.29451 | -0.02175 | 6141 ft | 122 kts | 264° |
| 2026-05-03 21:33 | 46.29449 | -0.03385 | 6211 ft | 119 kts | 271° |
| 2026-05-03 21:33 | 46.29382 | -0.04665 | 5922 ft | 126 kts | 258° |
| 2026-05-03 21:33 | 46.29250 | -0.05880 | 6028 ft | 119 kts | 256° |
| 2026-05-03 21:33 | 46.29077 | -0.07041 | 6104 ft | 117 kts | 256° |
| 2026-05-03 21:34 | 46.28953 | -0.08211 | 6164 ft | 119 kts | 259° |
| 2026-05-03 21:34 | 46.28838 | -0.09403 | 6191 ft | 122 kts | 261° |
| 2026-05-03 21:34 | 46.28717 | -0.10636 | 6147 ft | 124 kts | 257° |
| 2026-05-03 21:34 | 46.28566 | -0.11866 | 6146 ft | 125 kts | 257° |
| 2026-05-03 21:35 | 46.28412 | -0.13101 | 6140 ft | 125 kts | 257° |
| 2026-05-03 21:35 | 46.28265 | -0.14343 | 6144 ft | 125 kts | 258° |
| 2026-05-03 21:35 | 46.28134 | -0.15582 | 6155 ft | 125 kts | 259° |
| 2026-05-03 21:35 | 46.28019 | -0.16827 | 6154 ft | 126 kts | 260° |
| 2026-05-03 21:36 | 46.27914 | -0.18090 | 6132 ft | 126 kts | 261° |
| 2026-05-03 21:36 | 46.27816 | -0.19352 | 6141 ft | 126 kts | 261° |
| 2026-05-03 21:36 | 46.27724 | -0.20613 | 6105 ft | 128 kts | 261° |
| 2026-05-03 21:36 | 46.27633 | -0.21903 | 6053 ft | 127 kts | 261° |
| 2026-05-03 21:37 | 46.27528 | -0.23167 | 6039 ft | 127 kts | 260° |
| 2026-05-03 21:37 | 46.27403 | -0.24443 | 5989 ft | 128 kts | 258° |
| 2026-05-03 21:37 | 46.27258 | -0.25699 | 5981 ft | 126 kts | 258° |
| 2026-05-03 21:37 | 46.27133 | -0.26926 | 6006 ft | 122 kts | 262° |
| 2026-05-03 21:38 | 46.27114 | -0.28183 | 5982 ft | 126 kts | 268° |
| 2026-05-03 21:38 | 46.27137 | -0.29452 | 5978 ft | 127 kts | 268° |
| 2026-05-03 21:38 | 46.27151 | -0.30719 | 6026 ft | 124 kts | 266° |
| 2026-05-03 21:38 | 46.27131 | -0.31968 | 6045 ft | 125 kts | 265° |
| 2026-05-03 21:39 | 46.27072 | -0.33227 | 6052 ft | 125 kts | 261° |
| 2026-05-03 21:39 | 46.26955 | -0.34466 | 6067 ft | 125 kts | 258° |
| 2026-05-03 21:39 | 46.26802 | -0.35678 | 6093 ft | 124 kts | 256° |
| 2026-05-03 21:39 | 46.26613 | -0.36901 | 6110 ft | 123 kts | 253° |
| 2026-05-03 21:40 | 46.26466 | -0.37671 | 6101 ft | 124 kts | 251° |
| 2026-05-03 21:42 | 46.26209 | -0.38802 | 6104 ft | 124 kts | 248° |
| 2026-05-03 21:43 | 46.26092 | -0.39252 | 6117 ft | 123 kts | 247° |
| 2026-05-03 21:43 | 46.25872 | -0.40219 | 6077 ft | 120 kts | 261° |
| 2026-05-03 21:43 | 46.25958 | -0.41371 | 5962 ft | 106 kts | 261° |
| 2026-05-03 21:44 | 46.25867 | -0.42524 | 5852 ft | 124 kts | 259° |
| 2026-05-03 21:44 | 46.25698 | -0.43594 | 6118 ft | 113 kts | 253° |
| 2026-05-03 21:44 | 46.25498 | -0.44740 | 6105 ft | 121 kts | 253° |
| 2026-05-03 21:44 | 46.25285 | -0.45935 | 6097 ft | 123 kts | 254° |
| 2026-05-03 21:45 | 46.25141 | -0.47144 | 6105 ft | 122 kts | 257° |
| 2026-05-03 21:45 | 46.24965 | -0.48351 | 6099 ft | 124 kts | 253° |
| 2026-05-03 21:45 | 46.24742 | -0.49544 | 6125 ft | 123 kts | 254° |
| 2026-05-03 21:45 | 46.24558 | -0.50751 | 6132 ft | 123 kts | 256° |
| 2026-05-03 21:46 | 46.24397 | -0.51973 | 6136 ft | 125 kts | 257° |
| 2026-05-03 21:46 | 46.24222 | -0.53193 | 6164 ft | 123 kts | 255° |
| 2026-05-03 21:46 | 46.24147 | -0.53640 | 6171 ft | 122 kts | 253° |
| 2026-05-03 21:46 | 46.23919 | -0.54834 | 6164 ft | 125 kts | 251° |
| 2026-05-03 21:47 | 46.23644 | -0.56020 | 6187 ft | 123 kts | 247° |
| 2026-05-03 21:47 | 46.23306 | -0.57152 | 6165 ft | 124 kts | 244° |
| 2026-05-03 21:47 | 46.23068 | -0.58354 | 6007 ft | 132 kts | 262° |
| 2026-05-03 21:47 | 46.23045 | -0.59659 | 5983 ft | 125 kts | 265° |
| 2026-05-03 21:48 | 46.23030 | -0.60905 | 6016 ft | 124 kts | 265° |
| 2026-05-03 21:48 | 46.22985 | -0.62144 | 6045 ft | 124 kts | 264° |
| 2026-05-03 21:48 | 46.22933 | -0.63397 | 6055 ft | 125 kts | 263° |
| 2026-05-03 21:48 | 46.22839 | -0.64639 | 6059 ft | 125 kts | 260° |
| 2026-05-03 21:49 | 46.22731 | -0.65893 | 6056 ft | 125 kts | 259° |
| 2026-05-03 21:49 | 46.22610 | -0.67119 | 6078 ft | 124 kts | 258° |
| 2026-05-03 21:49 | 46.22470 | -0.68321 | 5784 ft | 108 kts | 257° |
| 2026-05-03 21:49 | 46.22385 | -0.69445 | 4853 ft | 117 kts | 261° |
| 2026-05-03 21:50 | 46.22273 | -0.70579 | 4036 ft | 114 kts | 255° |
| 2026-05-03 21:50 | 46.22025 | -0.71664 | 3247 ft | 113 kts | 245° |
| 2026-05-03 21:50 | 46.21700 | -0.72718 | 2401 ft | 116 kts | 243° |
| 2026-05-03 21:50 | 46.21305 | -0.73806 | 2352 ft | 122 kts | 239° |
| 2026-05-03 21:51 | 46.20829 | -0.74848 | 2435 ft | 128 kts | 235° |
| 2026-05-03 21:51 | 46.20297 | -0.75914 | 2450 ft | 132 kts | 232° |
| 2026-05-03 21:51 | 46.19749 | -0.76922 | 2534 ft | 124 kts | 230° |
| 2026-05-03 21:51 | 46.19189 | -0.77882 | 2570 ft | 126 kts | 228° |
| 2026-05-03 21:52 | 46.18603 | -0.78832 | 2570 ft | 127 kts | 227° |
| 2026-05-03 21:52 | 46.18080 | -0.79679 | 2594 ft | 124 kts | 229° |
| 2026-05-03 21:52 | 46.17763 | -0.80825 | 2353 ft | 129 kts | 255° |
| 2026-05-03 21:52 | 46.17522 | -0.81917 | 2402 ft | 112 kts | 251° |
| 2026-05-03 21:53 | 46.17282 | -0.83027 | 2388 ft | 120 kts | 253° |
| 2026-05-03 21:53 | 46.17044 | -0.84226 | 2359 ft | 126 kts | 252° |
| 2026-05-03 21:53 | 46.16776 | -0.85419 | 2380 ft | 126 kts | 252° |
| 2026-05-03 21:53 | 46.16558 | -0.86632 | 2413 ft | 124 kts | 259° |
| 2026-05-03 21:54 | 46.16559 | -0.87817 | 2495 ft | 114 kts | 279° |
| 2026-05-03 21:54 | 46.16678 | -0.88991 | 2512 ft | 123 kts | 275° |
| 2026-05-03 21:54 | 46.16754 | -0.90228 | 2534 ft | 124 kts | 274° |
| 2026-05-03 21:54 | 46.16879 | -0.91474 | 2522 ft | 126 kts | 276° |
| 2026-05-03 21:55 | 46.16925 | -0.92719 | 2534 ft | 125 kts | 270° |
| 2026-05-03 21:55 | 46.16935 | -0.93992 | 2517 ft | 128 kts | 269° |
| 2026-05-03 21:55 | 46.16926 | -0.95273 | 2528 ft | 126 kts | 269° |
| 2026-05-03 21:55 | 46.16966 | -0.96536 | 2519 ft | 127 kts | 271° |
| 2026-05-03 21:56 | 46.17016 | -0.97796 | 2526 ft | 125 kts | 275° |
| 2026-05-03 21:56 | 46.17062 | -0.98631 | 2522 ft | 126 kts | 272° |
| 2026-05-03 21:56 | 46.17128 | -0.99903 | 2509 ft | 128 kts | 272° |
| 2026-05-03 21:56 | 46.17177 | -1.01172 | 2499 ft | 124 kts | 273° |
| 2026-05-03 21:57 | 46.17245 | -1.02413 | 2394 ft | 123 kts | 273° |
| 2026-05-03 21:57 | 46.17296 | -1.03651 | 2183 ft | 126 kts | 272° |
| 2026-05-03 21:57 | 46.17316 | -1.04927 | 1962 ft | 127 kts | 271° |
| 2026-05-03 21:57 | 46.17342 | -1.06190 | 1809 ft | 125 kts | 271° |
| 2026-05-03 21:58 | 46.17382 | -1.07430 | 1679 ft | 123 kts | 275° |
| 2026-05-03 21:58 | 46.17456 | -1.08664 | 1537 ft | 123 kts | 275° |
| 2026-05-03 21:58 | 46.17525 | -1.09897 | 1399 ft | 123 kts | 275° |
| 2026-05-03 21:58 | 46.17577 | -1.11127 | 1247 ft | 122 kts | 272° |
| 2026-05-03 21:59 | 46.17621 | -1.12361 | 1072 ft | 124 kts | 274° |
| 2026-05-03 21:59 | 46.17676 | -1.13606 | 882 ft | 124 kts | 274° |
| 2026-05-03 21:59 | 46.17717 | -1.14836 | 691 ft | 122 kts | 274° |
| 2026-05-03 21:59 | 46.17780 | -1.16046 | 467 ft | 117 kts | 279° |
| 2026-05-03 22:00 | 46.17836 | -1.17101 | 290 ft | 95 kts | 276° |
| 2026-05-03 22:00 | 46.17867 | -1.17977 | 163 ft | 86 kts | 277° |
| 2026-05-03 22:00 | 46.17902 | -1.18831 | 70 ft | 84 kts | 277° |
| 2026-05-03 22:00 | 46.17924 | -1.19497 | 72 ft | 52 kts | 275° |
| 2026-05-03 22:01 | 46.17933 | -1.19851 | 74 ft | 24 kts | 271° |
| 2026-05-03 22:01 | 46.17941 | -1.20081 | 74 ft | 24 kts | 274° |
| 2026-05-03 22:01 | 46.17949 | -1.20338 | 70 ft | 27 kts | 270° |
| 2026-05-03 22:01 | 46.17959 | -1.20600 | 67 ft | 25 kts | 269° |
| 2026-05-03 22:02 | 46.17959 | -1.20765 | 65 ft | 11 kts | 268° |
| 2026-05-03 22:02 | 46.17960 | -1.20877 | 66 ft | 11 kts | 255° |
| 2026-05-03 22:02 | 46.17949 | -1.20907 | 59 ft | 2 kts | 255° |
| 2026-05-03 22:02 | 46.17967 | -1.20936 | 63 ft | 6 kts | 25° |
| 2026-05-03 22:03 | 46.17979 | -1.20890 | 65 ft | 12 kts | 103° |
| 2026-05-03 22:03 | 46.17957 | -1.20733 | 65 ft | 17 kts | 93° |
| 2026-05-03 22:03 | 46.17951 | -1.20537 | 68 ft | 25 kts | 92° |
| 2026-05-03 22:03 | 46.17946 | -1.20285 | 70 ft | 24 kts | 93° |
| 2026-05-03 22:04 | 46.17937 | -1.20059 | 74 ft | 23 kts | 93° |
| 2026-05-03 22:04 | 46.17929 | -1.19808 | 73 ft | 26 kts | 93° |
| 2026-05-03 22:04 | 46.17923 | -1.19594 | 72 ft | 14 kts | 92° |
| 2026-05-03 22:04 | 46.17910 | -1.19532 | 65 ft | 3 kts | 158° |
| 2026-05-03 22:05 | 46.17871 | -1.19523 | 72 ft | 8 kts | 178° |
| 2026-05-03 22:05 | 46.17789 | -1.19525 | 70 ft | 16 kts | 184° |
| 2026-05-03 22:05 | 46.17699 | -1.19519 | 65 ft | 11 kts | 135° |
| 2026-05-03 22:05 | 46.17684 | -1.19425 | 65 ft | 5 kts | 126° |
| 2026-05-03 22:06 | 46.17665 | -1.19401 | 63 ft | 6 kts | 173° |
| 2026-05-03 22:06 | 46.17650 | -1.19402 | 61 ft | 4 kts | 200° |
| 2026-05-03 22:06 | 46.17637 | -1.19420 | 59 ft | 1 kts | 277° |
| 2026-05-03 22:06 | 46.17647 | -1.19443 | 63 ft | 8 kts | 337° |
| 2026-05-03 22:07 | 46.17652 | -1.19446 | 63 ft | 0 kts | 325° |